createdAt,value
2018-04-24T00:01:39.437Z,12.46
2018-04-24T00:04:08.917Z,12.38
2018-04-24T00:06:37.560Z,12.35
2018-04-24T00:09:07.115Z,12.30
2018-04-24T00:11:35.773Z,12.24
2018-04-24T00:14:04.760Z,12.15
2018-04-24T00:16:34.082Z,12.10
2018-04-24T00:19:02.921Z,12.09
2018-04-24T00:21:31.554Z,12.12
2018-04-24T00:24:00.921Z,12.16
2018-04-24T00:26:29.659Z,12.18
2018-04-24T00:28:58.370Z,12.18
2018-04-24T00:31:27.004Z,12.25
2018-04-24T00:33:56.418Z,12.18
2018-04-24T00:36:25.016Z,12.20
2018-04-24T00:38:53.613Z,12.08
2018-04-24T00:41:22.297Z,12.03
2018-04-24T00:43:50.942Z,12.08
2018-04-24T00:46:20.299Z,12.17
2018-04-24T00:48:49.500Z,12.16
2018-04-24T00:51:18.468Z,12.23
2018-04-24T00:53:47.270Z,12.20
2018-04-24T00:56:15.879Z,12.14
2018-04-24T00:58:44.697Z,12.02
2018-04-24T01:01:13.241Z,11.88
2018-04-24T01:03:42.542Z,11.82
2018-04-24T01:06:11.079Z,11.81
2018-04-24T01:08:39.807Z,11.72
2018-04-24T01:11:08.485Z,11.57
2018-04-24T01:13:37.341Z,11.47
2018-04-24T01:16:06.292Z,11.38
2018-04-24T01:18:35.158Z,11.26
2018-04-24T01:21:04.489Z,11.23
2018-04-24T01:23:33.981Z,11.22
2018-04-24T01:26:02.821Z,11.23
2018-04-24T01:28:31.937Z,11.25
2018-04-24T01:31:00.620Z,11.29
2018-04-24T01:33:29.629Z,11.35
2018-04-24T01:35:58.288Z,11.45
2018-04-24T01:38:27.080Z,11.50
2018-04-24T01:40:56.065Z,11.38
2018-04-24T01:43:24.947Z,11.26
2018-04-24T01:45:53.604Z,11.18
2018-04-24T01:48:22.331Z,11.14
2018-04-24T01:53:24.939Z,11.00
2018-04-24T01:55:53.539Z,10.88
2018-04-24T01:58:22.080Z,10.82
2018-04-24T02:00:50.860Z,10.79
2018-04-24T02:03:20.330Z,10.73
2018-04-24T02:05:48.950Z,10.76
2018-04-24T02:08:19.321Z,10.71
2018-04-24T02:10:48.064Z,10.70
2018-04-24T02:13:16.742Z,10.66
2018-04-24T02:15:45.353Z,10.60
2018-04-24T02:18:14.549Z,10.55
2018-04-24T02:20:44.458Z,10.53
2018-04-24T02:23:13.992Z,10.49
2018-04-24T02:25:43.362Z,10.37
2018-04-24T02:28:11.881Z,10.32
2018-04-24T02:30:41.209Z,10.34
2018-04-24T02:33:09.746Z,10.36
2018-04-24T02:35:39.210Z,10.25
2018-04-24T02:38:07.922Z,10.21
2018-04-24T02:40:36.585Z,10.23
2018-04-24T02:43:05.983Z,10.23
2018-04-24T02:45:34.525Z,10.23
2018-04-24T02:48:04.286Z,10.20
2018-04-24T02:50:33.443Z,10.16
2018-04-24T02:53:02.326Z,10.13
2018-04-24T02:55:30.897Z,10.08
2018-04-24T02:57:59.540Z,10.07
2018-04-24T03:00:28.997Z,10.12
2018-04-24T03:02:57.755Z,10.20
2018-04-24T03:05:26.506Z,10.26
2018-04-24T03:07:55.141Z,10.25
2018-04-24T03:10:24.258Z,10.15
2018-04-24T03:12:53.573Z,10.04
2018-04-24T03:15:22.375Z,9.95
2018-04-24T03:17:51.029Z,9.86
2018-04-24T03:20:20.216Z,9.82
2018-04-24T03:22:49.237Z,9.85
2018-04-24T03:25:18.842Z,9.76
2018-04-24T03:27:48.837Z,9.69
2018-04-24T03:30:17.865Z,9.64
2018-04-24T03:32:46.471Z,9.63
2018-04-24T03:35:15.059Z,9.68
2018-04-24T03:37:43.797Z,9.74
2018-04-24T03:40:12.531Z,9.77
2018-04-24T03:45:16.405Z,9.83
2018-04-24T03:47:46.422Z,9.81
2018-04-24T03:50:15.311Z,9.73
2018-04-24T03:52:43.994Z,9.64
2018-04-24T03:55:12.630Z,9.57
2018-04-24T03:57:41.323Z,9.53
2018-04-24T04:00:10.769Z,9.47
2018-04-24T04:02:39.405Z,9.39
2018-04-24T04:05:08.839Z,9.32
2018-04-24T04:07:37.401Z,9.32
2018-04-24T04:10:06.862Z,9.30
2018-04-24T04:12:36.273Z,9.29
2018-04-24T04:15:04.940Z,9.31
2018-04-24T04:17:51.430Z,9.22
2018-04-24T04:20:38.262Z,9.14
2018-04-24T04:23:24.733Z,9.09
2018-04-24T04:25:53.462Z,9.07
2018-04-24T04:28:23.230Z,9.06
2018-04-24T04:30:52.644Z,9.07
2018-04-24T04:33:21.367Z,9.13
2018-04-24T04:35:50.330Z,9.26
2018-04-24T04:38:19.258Z,9.41
2018-04-24T04:40:48.051Z,9.56
2018-04-24T04:43:16.748Z,9.68
2018-04-24T04:45:45.335Z,9.77
2018-04-24T04:48:14.729Z,9.84
2018-04-24T04:50:43.389Z,9.88
2018-04-24T04:53:12.161Z,9.95
2018-04-24T04:55:41.705Z,10.04
2018-04-24T04:58:10.382Z,10.10
2018-04-24T05:00:39.809Z,10.20
2018-04-24T05:03:09.220Z,10.30
2018-04-24T05:05:38.167Z,10.41
2018-04-24T05:08:07.614Z,10.45
2018-04-24T05:13:10.200Z,10.57
2018-04-24T05:15:38.809Z,10.73
2018-04-24T05:18:07.502Z,10.82
2018-04-24T05:20:36.237Z,11.00
2018-04-24T05:23:05.684Z,11.31
2018-04-24T05:25:34.297Z,11.77
2018-04-24T05:28:02.870Z,12.29
2018-04-24T05:30:31.474Z,12.64
2018-04-24T05:33:00.170Z,12.92
2018-04-24T05:35:29.078Z,13.27
2018-04-24T05:37:58.415Z,13.46
2018-04-24T05:40:28.719Z,13.44
2018-04-24T05:42:57.393Z,13.61
2018-04-24T05:45:26.125Z,13.44
2018-04-24T05:47:54.687Z,13.59
2018-04-24T05:50:24.231Z,13.44
2018-04-24T05:52:52.822Z,13.30
2018-04-24T05:55:22.265Z,13.20
2018-04-24T05:57:50.934Z,13.37
2018-04-24T06:00:19.508Z,13.83
2018-04-24T06:07:55.769Z,16.62
2018-04-24T06:10:24.413Z,16.97
2018-04-24T06:12:53.979Z,17.25
2018-04-24T06:15:22.605Z,17.70
2018-04-24T06:20:25.421Z,18.32
2018-04-24T06:22:54.046Z,18.72
2018-04-24T06:25:22.759Z,18.57
2018-04-24T06:27:51.834Z,18.10
2018-04-24T06:30:21.258Z,18.03
2018-04-24T06:32:50.176Z,18.40
2018-04-24T06:35:18.902Z,19.24
2018-04-24T06:37:47.675Z,18.98
2018-04-24T06:40:17.355Z,18.65
2018-04-24T06:42:46.192Z,18.33
2018-04-24T06:45:15.893Z,18.22
2018-04-24T06:47:44.716Z,18.68
2018-04-24T06:50:13.467Z,19.41
2018-04-24T06:52:42.989Z,19.79
2018-04-24T06:55:11.615Z,20.31
2018-04-24T06:57:41.211Z,20.92
2018-04-24T07:00:11.006Z,21.40
2018-04-24T07:02:40.020Z,21.46
2018-04-24T07:05:08.719Z,21.57
2018-04-24T07:07:37.436Z,21.06
2018-04-24T07:10:06.084Z,21.54
2018-04-24T07:12:35.537Z,20.70
2018-04-24T07:15:04.307Z,20.70
2018-04-24T07:17:33.304Z,20.94
2018-04-24T07:20:02.894Z,21.10
2018-04-24T07:22:31.702Z,21.87
2018-04-24T07:25:00.721Z,22.73
2018-04-24T07:27:29.377Z,23.27
2018-04-24T07:29:58.703Z,23.45
2018-04-24T07:32:27.876Z,22.98
2018-04-24T07:34:56.616Z,22.77
2018-04-24T07:37:25.427Z,22.97
2018-04-24T07:39:54.190Z,23.06
2018-04-24T07:42:22.917Z,22.31
2018-04-24T07:44:51.609Z,22.31
2018-04-24T07:47:20.201Z,22.12
2018-04-24T07:49:48.899Z,21.83
2018-04-24T07:52:18.343Z,22.99
2018-04-24T07:54:46.954Z,22.34
2018-04-24T07:57:15.536Z,22.08
2018-04-24T08:02:19.454Z,25.92
2018-04-24T08:04:48.119Z,26.24
2018-04-24T08:07:16.725Z,26.64
2018-04-24T08:09:45.398Z,26.46
2018-04-24T08:12:14.060Z,27.42
2018-04-24T08:17:16.477Z,28.83
2018-04-24T08:19:45.390Z,29.33
2018-04-24T08:22:14.117Z,29.52
2018-04-24T08:24:43.022Z,30.38
2018-04-24T08:27:12.813Z,30.72
2018-04-24T08:29:42.688Z,30.99
2018-04-24T08:32:11.685Z,31.02
2018-04-24T08:34:40.615Z,31.48
2018-04-24T08:37:11.980Z,31.51
2018-04-24T08:39:40.779Z,31.97
2018-04-24T08:42:09.607Z,30.06
2018-04-24T08:44:38.355Z,26.39
2018-04-24T08:47:07.842Z,24.88
2018-04-24T08:49:36.693Z,24.34
2018-04-24T08:52:06.172Z,24.40
2018-04-24T08:54:35.726Z,24.44
2018-04-24T08:57:06.111Z,25.40
2018-04-24T08:59:35.711Z,25.91
2018-04-24T09:02:05.042Z,24.81
2018-04-24T09:04:34.510Z,26.99
2018-04-24T09:07:04.079Z,26.30
2018-04-24T09:09:33.749Z,27.21
2018-04-24T09:12:03.784Z,28.05
2018-04-24T09:14:33.227Z,28.61
2018-04-24T09:17:02.042Z,28.43
2018-04-24T09:19:30.815Z,29.13
2018-04-24T09:22:00.809Z,27.49
2018-04-24T09:24:30.364Z,29.04
2018-04-24T09:26:59.968Z,28.99
2018-04-24T09:29:30.031Z,29.55
2018-04-24T09:31:59.712Z,28.90
2018-04-24T09:34:28.705Z,28.70
2018-04-24T09:36:57.611Z,28.53
2018-04-24T09:39:26.641Z,28.97
2018-04-24T09:41:55.520Z,28.75
2018-04-24T09:44:26.915Z,28.61
2018-04-24T09:46:57.169Z,28.69
2018-04-24T09:49:27.187Z,28.52
2018-04-24T09:51:57.053Z,27.25
2018-04-24T09:54:26.906Z,28.19
2018-04-24T09:56:57.795Z,28.27
2018-04-24T09:59:27.479Z,28.47
2018-04-24T10:01:58.457Z,28.36
2018-04-24T10:04:28.346Z,28.58
2018-04-24T10:06:57.116Z,28.37
2018-04-24T10:09:25.966Z,29.09
2018-04-24T10:11:55.463Z,28.38
2018-04-24T10:14:25.432Z,29.96
2018-04-24T10:16:54.375Z,29.65
2018-04-24T10:19:23.273Z,28.01
2018-04-24T10:21:52.167Z,28.24
2018-04-24T10:24:20.796Z,28.47
2018-04-24T10:26:49.611Z,28.71
2018-04-24T10:29:19.336Z,29.79
2018-04-24T10:31:48.408Z,29.09
2018-04-24T10:34:18.459Z,27.79
2018-04-24T10:36:48.195Z,28.00
2018-04-24T10:39:17.534Z,28.57
2018-04-24T10:41:46.866Z,28.82
2018-04-24T10:44:16.179Z,29.24
2018-04-24T10:46:44.932Z,29.75
2018-04-24T10:49:14.489Z,30.20
2018-04-24T10:51:44.652Z,29.79
2018-04-24T10:54:14.490Z,29.90
2018-04-24T10:56:43.498Z,29.71
2018-04-24T10:59:13.033Z,30.25
2018-04-24T11:01:42.239Z,30.56
2018-04-24T11:04:11.162Z,30.39
2018-04-24T11:06:40.434Z,30.83
2018-04-24T11:09:10.748Z,30.16
2018-04-24T11:11:40.597Z,29.59
2018-04-24T11:14:10.899Z,29.22
2018-04-24T11:16:40.487Z,28.53
2018-04-24T11:19:10.417Z,28.10
2018-04-24T11:21:39.407Z,27.97
2018-04-24T11:24:08.297Z,26.97
2018-04-24T11:26:37.195Z,26.93
2018-04-24T11:29:05.898Z,26.15
2018-04-24T11:31:34.859Z,26.19
2018-04-24T11:34:04.064Z,26.34
2018-04-24T11:36:34.618Z,25.94
2018-04-24T11:39:04.475Z,25.82
2018-04-24T11:44:07.225Z,25.70
2018-04-24T11:46:35.983Z,25.02
2018-04-24T11:49:04.716Z,25.34
2018-04-24T11:51:33.573Z,26.61
2018-04-24T11:54:02.813Z,26.97
2018-04-24T11:56:32.659Z,25.17
2018-04-24T11:59:02.064Z,26.01
2018-04-24T12:01:31.656Z,26.87
2018-04-24T12:04:01.453Z,27.77
2018-04-24T12:06:30.088Z,27.36
2018-04-24T12:08:59.664Z,26.99
2018-04-24T12:11:28.638Z,27.19
2018-04-24T12:13:58.479Z,27.68
2018-04-24T12:16:27.226Z,27.93
2018-04-24T12:18:57.116Z,27.65
2018-04-24T12:21:26.808Z,27.54
2018-04-24T12:23:55.481Z,27.81
2018-04-24T12:26:24.396Z,26.73
2018-04-24T12:28:53.871Z,26.37
2018-04-24T12:31:24.181Z,25.59
2018-04-24T12:33:53.035Z,25.55
2018-04-24T12:36:23.217Z,26.00
2018-04-24T12:38:52.088Z,25.97
2018-04-24T12:41:21.981Z,26.66
2018-04-24T12:43:50.953Z,26.15
2018-04-24T12:46:19.745Z,26.00
2018-04-24T12:48:49.851Z,26.92
2018-04-24T12:51:19.359Z,27.21
2018-04-24T12:53:48.560Z,25.71
2018-04-24T12:56:18.421Z,25.53
2018-04-24T12:58:49.563Z,25.31
2018-04-24T13:01:19.290Z,25.60
2018-04-24T13:03:49.320Z,26.46
2018-04-24T13:06:18.650Z,26.63
2018-04-24T13:08:47.469Z,27.04
2018-04-24T13:11:16.293Z,27.10
2018-04-24T13:13:45.291Z,26.50
2018-04-24T13:16:15.343Z,25.44
2018-04-24T13:18:44.820Z,25.84
2018-04-24T13:21:14.090Z,25.60
2018-04-24T13:23:44.901Z,26.56
2018-04-24T13:26:13.966Z,26.00
2018-04-24T13:28:42.960Z,26.55
2018-04-24T13:31:12.204Z,26.22
2018-04-24T13:33:41.271Z,25.22
2018-04-24T13:36:11.055Z,25.66
2018-04-24T13:38:40.437Z,26.19
2018-04-24T13:41:09.505Z,26.16
2018-04-24T13:43:38.921Z,26.25
2018-04-24T13:46:08.835Z,26.31
2018-04-24T13:48:39.079Z,25.82
2018-04-24T13:51:08.719Z,25.43
2018-04-24T13:53:38.356Z,25.29
2018-04-24T13:56:07.278Z,25.39
2018-04-24T13:58:36.465Z,25.68
2018-04-24T14:01:05.250Z,25.84
2018-04-24T14:03:34.156Z,25.67
2018-04-24T14:06:03.865Z,26.00
2018-04-24T14:08:32.705Z,26.08
2018-04-24T14:11:01.551Z,26.21
2018-04-24T14:13:30.631Z,25.67
2018-04-24T14:15:59.565Z,26.29
2018-04-24T14:18:28.874Z,26.30
2018-04-24T14:20:59.395Z,26.47
2018-04-24T14:23:29.014Z,26.02
2018-04-24T14:25:59.301Z,26.24
2018-04-24T14:28:28.275Z,25.83
2018-04-24T14:30:58.037Z,26.53
2018-04-24T14:33:26.751Z,26.83
2018-04-24T14:35:56.434Z,27.00
2018-04-24T14:38:25.940Z,26.05
2018-04-24T14:40:55.437Z,26.58
2018-04-24T14:43:24.387Z,26.84
2018-04-24T14:45:54.432Z,27.15
2018-04-24T14:48:24.451Z,26.84
2018-04-24T14:50:56.423Z,26.18
2018-04-24T14:53:27.570Z,26.53
2018-04-24T14:55:56.601Z,26.59
2018-04-24T14:58:25.610Z,26.76
2018-04-24T15:00:54.531Z,26.88
2018-04-24T15:03:24.343Z,25.91
2018-04-24T15:05:53.165Z,25.52
2018-04-24T15:08:22.175Z,25.50
2018-04-24T15:10:51.076Z,25.36
2018-04-24T15:13:20.347Z,25.86
2018-04-24T15:15:51.660Z,26.19
2018-04-24T15:18:21.823Z,25.47
2018-04-24T15:20:51.003Z,25.32
2018-04-24T15:23:20.369Z,25.13
2018-04-24T15:25:49.478Z,25.38
2018-04-24T15:30:54.173Z,25.08
2018-04-24T15:33:25.628Z,25.23
2018-04-24T15:35:55.786Z,25.30
2018-04-24T15:38:26.821Z,25.57
2018-04-24T15:40:57.990Z,24.71
2018-04-24T15:43:27.929Z,24.80
2018-04-24T15:46:00.737Z,24.51
2018-04-24T15:48:32.284Z,24.74
2018-04-24T15:51:05.560Z,25.02
2018-04-24T15:53:36.249Z,24.80
2018-04-24T15:56:07.181Z,24.78
2018-04-24T15:58:36.157Z,24.45
2018-04-24T16:01:05.479Z,24.21
2018-04-24T16:03:35.196Z,24.43
2018-04-24T16:06:04.253Z,24.33
2018-04-24T16:08:34.442Z,24.08
2018-04-24T16:11:03.193Z,24.15
2018-04-24T16:13:32.974Z,24.25
2018-04-24T16:16:01.815Z,24.16
2018-04-24T16:18:31.173Z,24.17
2018-04-24T16:21:05.672Z,24.21
2018-04-24T16:23:35.371Z,23.72
2018-04-24T16:26:04.352Z,23.88
2018-04-24T16:28:33.272Z,23.83
2018-04-24T16:31:01.891Z,23.91
2018-04-24T16:33:30.894Z,23.66
2018-04-24T16:35:59.729Z,23.33
2018-04-24T16:38:28.939Z,23.18
2018-04-24T16:40:58.728Z,23.27
2018-04-24T16:43:28.602Z,22.96
2018-04-24T16:45:57.357Z,23.04
2018-04-24T16:48:28.058Z,22.82
2018-04-24T16:50:58.143Z,22.91
2018-04-24T16:53:27.172Z,23.07
2018-04-24T16:55:56.250Z,23.10
2018-04-24T16:58:25.253Z,23.05
2018-04-24T17:00:53.907Z,23.10
2018-04-24T17:03:22.519Z,22.95
2018-04-24T17:05:51.138Z,22.95
2018-04-24T17:08:20.862Z,22.65
2018-04-24T17:10:50.425Z,22.72
2018-04-24T17:13:19.178Z,22.57
2018-04-24T17:15:47.878Z,22.44
2018-04-24T17:18:17.554Z,22.45
2018-04-24T17:20:48.835Z,22.30
2018-04-24T17:23:18.080Z,22.14
2018-04-24T17:25:48.444Z,22.04
2018-04-24T17:28:17.198Z,21.82
2018-04-24T17:30:46.044Z,21.72
2018-04-24T17:33:15.476Z,21.65
2018-04-24T17:35:44.277Z,21.59
2018-04-24T17:38:13.238Z,21.55
2018-04-24T17:40:42.275Z,21.50
2018-04-24T17:43:10.964Z,21.42
2018-04-24T17:45:40.870Z,21.30
2018-04-24T17:48:10.309Z,21.15
2018-04-24T17:50:39.545Z,21.01
2018-04-24T17:53:09.052Z,20.85
2018-04-24T17:55:38.418Z,20.71
2018-04-24T17:58:07.158Z,20.57
2018-04-24T18:00:36.055Z,20.49
2018-04-24T18:03:04.562Z,20.41
2018-04-24T18:05:33.470Z,20.30
2018-04-24T18:08:02.287Z,20.24
2018-04-24T18:10:31.054Z,20.19
2018-04-24T18:13:00.599Z,20.09
2018-04-24T18:15:29.528Z,20.00
2018-04-24T18:17:59.185Z,19.84
2018-04-24T18:20:29.092Z,19.70
2018-04-24T18:22:57.900Z,19.56
2018-04-24T18:25:27.026Z,19.44
2018-04-24T18:27:55.949Z,19.28
2018-04-24T18:30:24.818Z,19.14
2018-04-24T18:32:54.840Z,19.05
2018-04-24T18:35:24.485Z,18.93
2018-04-24T18:37:53.177Z,18.82
2018-04-24T18:42:57.612Z,18.61
2018-04-24T18:45:27.241Z,18.63
2018-04-24T18:47:56.219Z,18.60
2018-04-24T18:50:25.427Z,18.56
2018-04-24T18:52:54.606Z,18.41
2018-04-24T18:55:23.840Z,18.37
2018-04-24T18:57:54.313Z,18.24
2018-04-24T19:00:23.779Z,18.11
2018-04-24T19:02:52.690Z,18.05
2018-04-24T19:05:22.147Z,18.10
2018-04-24T19:07:52.380Z,18.08
2018-04-24T19:10:23.391Z,18.02
2018-04-24T19:12:52.982Z,17.99
2018-04-24T19:15:23.605Z,17.95
2018-04-24T19:17:52.499Z,17.87
2018-04-24T19:20:21.697Z,17.65
2018-04-24T19:22:50.433Z,17.49
2018-04-24T19:25:24.871Z,17.32
2018-04-24T19:27:53.754Z,17.24
2018-04-24T19:30:22.689Z,17.12
2018-04-24T19:32:53.033Z,17.03
2018-04-24T19:35:23.492Z,16.99
2018-04-24T19:37:53.748Z,16.99
2018-04-24T19:40:28.210Z,16.88
2018-04-24T19:42:58.398Z,16.87
2018-04-24T19:45:28.438Z,16.79
2018-04-24T19:47:58.159Z,16.67
2018-04-24T19:53:02.585Z,16.47
2018-04-24T19:55:32.245Z,16.42
2018-04-24T19:58:00.960Z,16.38
2018-04-24T20:00:31.890Z,16.25
2018-04-24T20:03:01.688Z,16.17
2018-04-24T20:08:05.636Z,16.15
2018-04-24T20:13:10.243Z,15.94
2018-04-24T20:15:40.549Z,15.87
2018-04-24T20:18:09.622Z,15.89
2018-04-24T20:20:38.556Z,16.01
2018-04-24T20:23:07.489Z,16.36
2018-04-24T20:25:37.124Z,16.43
2018-04-24T20:28:06.045Z,16.39
2018-04-24T20:30:35.649Z,16.32
2018-04-24T20:33:05.681Z,16.38
2018-04-24T20:35:34.966Z,16.24
2018-04-24T20:38:05.071Z,16.06
2018-04-24T20:40:34.716Z,15.99
2018-04-24T20:43:05.115Z,15.92
2018-04-24T20:45:35.423Z,15.86
2018-04-24T20:48:06.257Z,15.76
2018-04-24T20:50:36.047Z,15.71
2018-04-24T20:58:15.127Z,15.56
2018-04-24T21:03:19.741Z,15.24
2018-04-24T21:05:49.431Z,15.08
2018-04-24T21:08:20.326Z,14.94
2018-04-24T21:10:50.382Z,14.96
2018-04-24T21:13:20.551Z,14.95
2018-04-24T21:15:50.196Z,14.99
2018-04-24T21:18:20.469Z,14.98
2018-04-24T21:20:49.294Z,15.03
2018-04-24T21:25:51.992Z,15.00
2018-04-24T21:28:20.799Z,14.86
2018-04-24T21:30:50.670Z,14.70
2018-04-24T21:33:19.665Z,14.56
2018-04-24T21:35:48.787Z,14.36
2018-04-24T21:38:18.857Z,14.16
2018-04-24T21:40:48.864Z,14.10
2018-04-24T21:43:18.763Z,14.18
2018-04-24T21:45:48.574Z,14.05
2018-04-24T21:48:18.028Z,13.98
2018-04-24T21:50:46.812Z,13.92
2018-04-24T21:53:15.469Z,13.86
2018-04-24T21:55:44.117Z,13.81
2018-04-24T21:58:13.349Z,13.86
2018-04-24T22:00:43.590Z,13.89
2018-04-24T22:03:12.313Z,13.96
2018-04-24T22:05:44.103Z,14.00
2018-04-24T22:08:13.463Z,13.95
2018-04-24T22:10:43.187Z,13.80
2018-04-24T22:13:12.830Z,13.81
2018-04-24T22:15:45.957Z,13.76
2018-04-24T22:18:15.535Z,13.71
2018-04-24T22:20:44.664Z,13.65
2018-04-24T22:23:13.772Z,13.64
2018-04-24T22:28:17.377Z,13.60
2018-04-24T22:30:47.115Z,13.71
2018-04-24T22:33:16.964Z,13.71
2018-04-24T22:35:45.920Z,13.73
2018-04-24T22:38:15.489Z,13.71
2018-04-24T22:43:19.876Z,13.46
2018-04-24T22:45:48.831Z,13.27
2018-04-24T22:48:17.715Z,13.15
2018-04-24T22:50:46.649Z,12.99
2018-04-24T22:53:15.679Z,12.85
2018-04-24T22:55:46.197Z,12.77
2018-04-24T23:00:48.842Z,12.83
2018-04-24T23:03:17.535Z,12.97
2018-04-24T23:05:46.561Z,12.98
2018-04-24T23:08:16.303Z,13.04
2018-04-24T23:11:03.061Z,13.06
2018-04-24T23:13:49.808Z,12.97
2018-04-24T23:16:36.411Z,12.88
2018-04-24T23:21:56.692Z,12.83
2018-04-24T23:24:25.367Z,12.81
2018-04-24T23:26:54.153Z,12.77
2018-04-24T23:29:22.937Z,12.82
2018-04-24T23:31:52.508Z,12.82
2018-04-24T23:34:21.298Z,12.78
2018-04-24T23:36:50.261Z,12.77
2018-04-24T23:39:19.029Z,12.73
2018-04-24T23:41:47.734Z,12.73
2018-04-24T23:44:16.629Z,12.73
2018-04-24T23:46:45.371Z,12.75
2018-04-24T23:49:14.773Z,12.76
2018-04-24T23:51:44.364Z,12.73
2018-04-24T23:54:13.886Z,12.70
2018-04-24T23:56:43.340Z,12.74
2018-04-24T23:59:12.752Z,12.62
